Time;durP1;ratioP1;P1;durP2;ratioP2;P2;SDS_P1;SDS_P2;PMS_P1;PMS_P2;Temp;Humidity;BMP_temperature;BMP_pressure;BME280_temperature;BME280_humidity;BME280_pressure;Samples;Min_cycle;Max_cycle;Signal;HPM_P1;HPM_P2
2024/02/02 00:00:14;;;;;;;8.18;4.20;;;;;;;11.82;100.00;101799.50;10607485;27;20070;-76
2024/02/02 00:05:38;;;;;;;4.95;4.18;;;;;;;11.92;100.00;101810.38;10607675;27;20509;-77
2024/02/02 00:11:00;;;;;;;11.80;5.00;;;;;;;12.14;97.25;101806.53;10595974;27;20047;-76
2024/02/02 00:16:23;;;;;;;9.25;5.40;;;;;;;12.11;96.31;101810.88;10577074;27;20134;-76
2024/02/02 00:21:48;;;;;;;7.38;3.65;;;;;;;11.66;99.86;101803.47;10580500;27;20050;-76
2024/02/02 00:27:10;;;;;;;8.68;4.28;;;;;;;11.43;100.00;101792.22;10589268;27;20059;-76
2024/02/02 00:32:33;;;;;;;6.70;4.95;;;;;;;11.73;100.00;101792.19;10591147;27;20074;-76
2024/02/02 00:37:57;;;;;;;7.57;4.85;;;;;;;12.02;98.50;101800.94;10576367;27;20031;-76
2024/02/02 00:43:20;;;;;;;5.28;3.88;;;;;;;12.27;98.54;101795.41;10546934;27;20051;-76
2024/02/02 00:48:42;;;;;;;11.02;5.88;;;;;;;12.50;100.00;101797.75;10587414;27;20480;-77
2024/02/02 00:54:06;;;;;;;6.97;4.35;;;;;;;12.59;100.00;101796.22;10568988;27;20376;-76
2024/02/02 00:59:29;;;;;;;9.85;4.82;;;;;;;12.52;100.00;101799.56;10557857;27;20046;-77
2024/02/02 01:04:52;;;;;;;7.57;5.55;;;;;;;12.28;100.00;101793.66;10571571;27;20071;-77
2024/02/02 01:10:17;;;;;;;4.88;3.75;;;;;;;12.12;100.00;101794.13;10565573;27;20047;-77
2024/02/02 01:15:39;;;;;;;4.10;3.55;;;;;;;11.95;100.00;101791.94;10582493;27;20101;-76
2024/02/02 01:21:02;;;;;;;7.00;3.90;;;;;;;11.78;100.00;101789.69;10573980;27;20112;-76
2024/02/02 01:26:26;;;;;;;7.38;4.30;;;;;;;11.62;100.00;101783.03;10578692;27;20043;-77
2024/02/02 01:31:49;;;;;;;10.20;6.95;;;;;;;11.45;100.00;101781.69;10576741;27;20044;-76
2024/02/02 01:37:11;;;;;;;7.35;5.90;;;;;;;11.38;100.00;101780.63;10584140;27;20531;-76
2024/02/02 01:42:36;;;;;;;10.98;4.82;;;;;;;11.41;100.00;101775.44;10587708;27;20047;-76
2024/02/02 01:47:59;;;;;;;8.75;6.38;;;;;;;11.35;100.00;101777.00;10574903;27;20059;-76
2024/02/02 01:53:21;;;;;;;6.75;3.97;;;;;;;11.27;100.00;101774.13;10564670;27;20593;-76
2024/02/02 01:58:45;;;;;;;7.93;4.55;;;;;;;11.08;100.00;101772.72;10599730;27;20046;-77
2024/02/02 02:04:09;;;;;;;7.47;3.72;;;;;;;11.02;100.00;101771.63;10593576;27;20051;-77
2024/02/02 02:09:32;;;;;;;7.68;5.22;;;;;;;11.01;100.00;101770.72;10564741;27;20051;-76
2024/02/02 02:14:56;;;;;;;6.25;4.50;;;;;;;10.87;100.00;101774.69;10584558;28;20055;-76
2024/02/02 02:20:22;;;;;;;6.65;4.55;;;;;;;10.71;100.00;101762.75;10566380;28;20039;-76
2024/02/02 02:25:46;;;;;;;6.70;3.83;;;;;;;10.95;100.00;101756.44;10584949;28;20079;-77
2024/02/02 02:31:11;;;;;;;4.43;3.28;;;;;;;11.13;100.00;101743.78;10574819;28;20054;-77
2024/02/02 02:36:34;;;;;;;10.45;6.13;;;;;;;10.72;100.00;101753.09;10575771;28;20055;-77
2024/02/02 02:41:58;;;;;;;11.82;6.47;;;;;;;10.36;100.00;101758.13;10568485;28;20417;-76
2024/02/02 02:47:21;;;;;;;10.40;6.18;;;;;;;10.19;100.00;101752.28;10558612;28;20047;-77
2024/02/02 02:52:43;;;;;;;18.33;6.18;;;;;;;10.10;100.00;101753.69;10560607;28;20058;-77
2024/02/02 02:58:08;;;;;;;9.27;3.92;;;;;;;10.04;100.00;101754.38;10569118;28;20063;-77
2024/02/02 03:03:30;;;;;;;5.45;4.30;;;;;;;9.91;100.00;101755.69;10569635;28;20059;-76
2024/02/02 03:08:53;;;;;;;10.98;4.35;;;;;;;9.96;100.00;101748.84;10560852;28;20047;-77
2024/02/02 03:14:17;;;;;;;7.75;4.07;;;;;;;10.07;100.00;101751.84;10590335;27;20058;-77
2024/02/02 03:19:40;;;;;;;5.88;4.13;;;;;;;10.09;100.00;101749.25;10619966;27;20051;-76
2024/02/02 03:25:02;;;;;;;6.55;4.05;;;;;;;10.31;100.00;101755.31;10611873;27;20050;-77
2024/02/02 03:30:27;;;;;;;5.45;3.67;;;;;;;10.24;100.00;101763.00;10599852;27;20042;-76
2024/02/02 03:35:49;;;;;;;6.13;4.15;;;;;;;10.00;100.00;101757.75;10622632;27;20107;-76
2024/02/02 03:41:13;;;;;;;9.25;4.05;;;;;;;9.64;100.00;101759.13;10619182;27;20061;-76
2024/02/02 03:46:37;;;;;;;10.27;4.72;;;;;;;9.52;100.00;101768.38;10618936;27;20043;-76
2024/02/02 03:52:00;;;;;;;8.68;4.95;;;;;;;9.34;100.00;101762.44;10627743;27;20533;-76
2024/02/02 03:57:23;;;;;;;16.00;6.00;;;;;;;9.37;100.00;101766.94;10595940;27;20418;-76
2024/02/02 04:02:47;;;;;;;6.82;4.25;;;;;;;9.37;100.00;101770.47;10633234;27;20039;-76
2024/02/02 04:08:09;;;;;;;7.32;4.35;;;;;;;9.18;100.00;101766.28;10602417;27;20065;-76
2024/02/02 04:13:32;;;;;;;5.93;4.28;;;;;;;9.03;100.00;101770.06;10639296;27;20467;-77
2024/02/02 04:18:56;;;;;;;6.65;4.20;;;;;;;9.26;100.00;101768.25;10613940;27;20046;-76
2024/02/02 04:24:19;;;;;;;7.72;4.70;;;;;;;9.49;100.00;101765.66;10610887;27;20049;-76
2024/02/02 04:29:41;;;;;;;6.10;4.68;;;;;;;9.41;100.00;101769.75;10590605;27;20039;-76
2024/02/02 04:35:07;;;;;;;7.10;4.60;;;;;;;9.22;100.00;101769.91;10606479;27;20051;-76
2024/02/02 04:40:30;;;;;;;8.30;4.53;;;;;;;9.39;100.00;101773.16;10569695;27;20668;-77
2024/02/02 04:45:52;;;;;;;5.20;4.10;;;;;;;9.50;100.00;101778.00;10618620;27;20070;-76
2024/02/02 04:51:17;;;;;;;8.65;6.22;;;;;;;9.55;100.00;101786.06;10617995;27;20047;-77
2024/02/02 04:56:39;;;;;;;7.93;5.32;;;;;;;9.52;100.00;101773.66;10600930;27;20043;-77
2024/02/02 05:02:02;;;;;;;18.40;5.90;;;;;;;9.49;100.00;101778.81;10615063;27;20050;-76
2024/02/02 05:07:26;;;;;;;10.00;4.60;;;;;;;9.64;100.00;101786.41;10632338;27;20387;-77
2024/02/02 05:12:49;;;;;;;12.68;5.57;;;;;;;9.80;100.00;101786.06;10593243;27;20083;-76
2024/02/02 05:18:11;;;;;;;16.10;7.65;;;;;;;9.89;100.00;101781.13;10598430;27;20051;-76
2024/02/02 05:23:36;;;;;;;30.48;11.27;;;;;;;9.97;100.00;101784.03;10618730;27;20119;-76
2024/02/02 05:28:59;;;;;;;10.07;5.60;;;;;;;9.87;100.00;101790.72;10611310;27;20130;-76
2024/02/02 05:34:21;;;;;;;7.13;4.70;;;;;;;9.98;100.00;101791.97;10601043;27;20110;-76
2024/02/02 05:39:45;;;;;;;6.53;4.03;;;;;;;10.36;100.00;101793.34;10596462;27;20063;-77
2024/02/02 05:45:09;;;;;;;13.25;6.68;;;;;;;10.61;100.00;101796.75;10619417;27;20143;-78
2024/02/02 05:50:31;;;;;;;21.65;8.57;;;;;;;10.88;100.00;101796.72;10608779;27;20055;-77
2024/02/02 05:55:55;;;;;;;18.30;8.25;;;;;;;11.02;100.00;101812.16;10583379;27;20050;-77
2024/02/02 06:01:18;;;;;;;9.80;6.25;;;;;;;11.11;100.00;101809.78;10615348;27;20050;-77
2024/02/02 06:06:40;;;;;;;10.73;6.20;;;;;;;11.13;100.00;101810.72;10629123;27;20043;-77
2024/02/02 06:12:06;;;;;;;8.00;6.10;;;;;;;11.43;100.00;101809.81;10636215;27;20042;-76
2024/02/02 06:17:28;;;;;;;27.30;15.23;;;;;;;11.94;100.00;101813.09;10582410;27;20538;-76
2024/02/02 06:22:51;;;;;;;27.90;14.32;;;;;;;15.70;90.97;101795.63;10584257;27;20043;-77
2024/02/02 06:28:16;;;;;;;20.25;13.52;;;;;;;14.88;92.28;101797.19;10595184;27;20138;-77
2024/02/02 06:33:39;;;;;;;22.95;14.27;;;;;;;13.98;100.00;101793.91;10590223;27;20075;-77
2024/02/02 06:39:01;;;;;;;23.42;15.98;;;;;;;13.98;100.00;101800.97;10612212;27;20551;-76
2024/02/02 06:44:26;;;;;;;23.45;15.18;;;;;;;14.92;94.66;101799.00;10624526;27;20118;-77
2024/02/02 06:49:48;;;;;;;20.23;14.77;;;;;;;14.77;97.50;101791.69;10609449;28;20048;-77
2024/02/02 06:55:12;;;;;;;11.23;7.28;;;;;;;16.41;84.19;101789.22;10587038;27;20050;-77
2024/02/02 07:00:37;;;;;;;10.90;8.02;;;;;;;17.59;71.85;101781.91;10609651;27;20585;-76
2024/02/02 07:06:00;;;;;;;9.57;4.20;;;;;;;19.45;54.02;101778.28;10608820;27;20499;-77
2024/02/02 07:11:56;;;;;;;8.27;4.72;;;;;;;17.18;69.32;101776.44;10612745;27;20051;-77
2024/02/02 07:17:36;;;;;;;4.30;3.90;;;;;;;20.92;49.95;101768.28;10534376;28;20075;-77
2024/02/02 07:23:01;;;;;;;7.28;5.85;;;;;;;22.72;44.36;101766.59;10546326;28;20069;-78
2024/02/02 07:28:33;;;;;;;6.20;4.30;;;;;;;23.39;42.97;101774.25;10550436;28;20091;-77
2024/02/02 07:34:03;;;;;;;5.72;3.53;;;;;;;24.89;39.29;101768.88;10564814;28;20047;-78
2024/02/02 07:39:31;;;;;;;4.75;3.78;;;;;;;25.91;37.10;101776.72;10550028;28;20058;-78
2024/02/02 07:44:54;;;;;;;10.60;8.60;;;;;;;26.51;35.62;101779.28;10564775;28;20039;-79
2024/02/02 07:50:18;;;;;;;5.07;3.45;;;;;;;26.77;34.39;101778.38;10551296;28;20052;-81
2024/02/02 07:55:41;;;;;;;5.40;2.78;;;;;;;26.83;34.21;101781.75;10551958;28;20043;-78
2024/02/02 08:01:03;;;;;;;3.65;3.20;;;;;;;27.90;32.79;101794.00;10564273;28;20078;-80
2024/02/02 08:06:27;;;;;;;4.93;2.90;;;;;;;27.82;32.31;101788.03;10564174;28;20043;-79
2024/02/02 08:11:50;;;;;;;7.32;4.75;;;;;;;28.77;31.18;101785.88;10550652;27;20044;-80
2024/02/02 08:17:13;;;;;;;9.98;6.45;;;;;;;29.37;30.32;101781.41;10494285;28;20180;-80
2024/02/02 08:22:37;;;;;;;5.82;4.82;;;;;;;27.00;33.23;101792.00;10548619;27;20090;-79
2024/02/02 08:27:59;;;;;;;4.68;3.50;;;;;;;26.79;33.17;101792.72;10586891;27;20057;-79
2024/02/02 08:33:22;;;;;;;5.18;3.13;;;;;;;28.20;31.26;101786.50;10560399;27;20503;-80
2024/02/02 08:38:46;;;;;;;5.32;3.92;;;;;;;27.22;31.99;101786.69;10580661;27;20112;-80
2024/02/02 08:44:19;;;;;;;3.03;2.63;;;;;;;29.21;29.46;101792.09;10571270;27;20062;-80
2024/02/02 08:49:53;;;;;;;3.85;2.85;;;;;;;29.99;28.65;101794.78;10601537;27;20047;-80
2024/02/02 08:55:42;;;;;;;5.65;3.17;;;;;;;29.85;28.11;101789.97;10581243;27;20047;-78
2024/02/02 09:01:05;;;;;;;4.07;2.70;;;;;;;30.26;27.56;101790.66;10579323;27;20575;-79
2024/02/02 09:06:42;;;;;;;6.25;2.40;;;;;;;29.69;27.97;101789.81;10605005;27;20050;-79
2024/02/02 09:12:07;;;;;;;3.03;2.42;;;;;;;29.69;27.96;101791.66;10589813;27;20055;-79
2024/02/02 09:17:31;;;;;;;31.52;19.63;;;;;;;30.01;27.75;101788.28;10590030;27;20058;-78
2024/02/02 09:22:56;;;;;;;10.07;6.45;;;;;;;29.87;28.26;101776.25;10577063;27;20047;-78
2024/02/02 09:28:42;;;;;;;2.20;2.00;;;;;;;29.00;28.89;101763.13;10587145;27;20051;-79
2024/02/02 09:34:09;;;;;;;3.60;1.95;;;;;;;31.45;25.96;101771.69;10560526;28;20717;-80
2024/02/02 09:40:05;;;;;;;4.13;2.67;;;;;;;27.64;29.50;101755.22;10584340;27;20127;-79
2024/02/02 09:45:47;;;;;;;3.00;2.63;;;;;;;24.96;33.20;101755.19;10589706;27;20047;-79
2024/02/02 09:51:22;;;;;;;2.50;1.92;;;;;;;24.84;33.67;101751.91;10552356;27;20127;-79
2024/02/02 09:56:57;;;;;;;66.60;40.53;;;;;;;23.80;35.33;101749.13;10565383;28;20062;-79
2024/02/02 10:03:02;;;;;;;4.45;2.45;;;;;;;22.95;37.10;101740.16;10593132;27;20047;-79
2024/02/02 10:08:43;;;;;;;5.75;4.20;;;;;;;24.07;35.34;101733.19;10431323;28;20068;-80
2024/02/02 10:14:22;;;;;;;3.22;2.67;;;;;;;22.47;37.73;101725.78;10348459;28;20061;-78
2024/02/02 10:20:11;;;;;;;5.25;3.70;;;;;;;22.50;38.52;101711.38;10349510;28;20669;-79
2024/02/02 10:25:53;;;;;;;2.80;2.00;;;;;;;21.03;40.80;101712.66;10430635;28;20042;-78
2024/02/02 10:31:33;;;;;;;2.53;1.90;;;;;;;19.76;43.47;101711.16;10435660;28;20048;-78
2024/02/02 10:37:20;;;;;;;4.78;2.88;;;;;;;19.55;45.25;101703.28;10438926;28;20592;-78
2024/02/02 10:42:59;;;;;;;4.70;2.53;;;;;;;21.83;41.74;101701.72;10514985;28;20142;-78
2024/02/02 10:48:39;;;;;;;3.45;2.15;;;;;;;23.93;38.97;101681.38;10582592;28;20079;-78
2024/02/02 10:54:14;;;;;;;4.93;2.17;;;;;;;22.21;40.33;101677.81;10580951;28;20043;-79
2024/02/02 10:59:51;;;;;;;2.90;2.35;;;;;;;20.97;43.17;101666.19;10568645;28;20044;-78
2024/02/02 11:05:22;;;;;;;20.95;11.90;;;;;;;21.19;43.45;101665.06;10568508;28;20051;-79
2024/02/02 11:10:58;;;;;;;12.75;9.35;;;;;;;20.39;45.16;101666.00;10581213;28;20047;-79
2024/02/02 11:16:38;;;;;;;7.93;3.90;;;;;;;20.03;46.32;101645.72;10586967;27;20520;-79
2024/02/02 11:22:12;;;;;;;7.97;5.75;;;;;;;21.37;44.75;101639.72;10567741;28;20040;-79
2024/02/02 11:27:48;;;;;;;9.90;7.47;;;;;;;21.15;44.65;101640.91;10553171;28;20105;-80
2024/02/02 11:33:51;;;;;;;4.60;2.97;;;;;;;20.58;45.83;101641.63;10566210;28;20066;-79
2024/02/02 11:39:28;;;;;;;12.00;8.25;;;;;;;21.10;45.09;101632.91;10427099;28;20136;-79
2024/02/02 11:44:55;;;;;;;32.80;16.23;;;;;;;20.69;45.96;101634.31;10395727;28;20060;-78
2024/02/02 11:50:19;;;;;;;7.60;5.27;;;;;;;21.92;44.73;101620.03;10415648;28;20575;-79
2024/02/02 11:55:48;;;;;;;7.10;3.88;;;;;;;22.22;43.55;101625.78;10422642;28;20072;-78
2024/02/02 12:01:28;;;;;;;14.25;6.93;;;;;;;21.83;44.49;101623.75;10463565;28;20056;-79
2024/02/02 12:07:07;;;;;;;6.95;4.35;;;;;;;21.75;44.59;101613.13;10475954;28;20500;-79
2024/02/02 12:12:35;;;;;;;4.88;3.13;;;;;;;21.38;45.31;101606.59;10481458;27;20047;-78
2024/02/02 12:17:59;;;;;;;5.88;3.53;;;;;;;21.33;45.15;101605.78;10621128;27;20057;-79
2024/02/02 12:23:22;;;;;;;11.05;8.13;;;;;;;21.04;45.85;101608.84;10637796;27;20050;-80
2024/02/02 12:28:44;;;;;;;8.77;5.72;;;;;;;21.31;46.25;101600.41;10622037;27;20043;-80
2024/02/02 12:34:09;;;;;;;5.68;4.80;;;;;;;21.56;44.72;101605.41;10640342;27;20470;-80
2024/02/02 12:39:36;;;;;;;6.50;3.95;;;;;;;21.62;44.38;101599.91;10600251;27;20487;-78
2024/02/02 12:44:59;;;;;;;7.85;4.65;;;;;;;21.55;44.74;101611.69;10597056;27;21479;-77
2024/02/02 12:50:25;;;;;;;7.15;4.75;;;;;;;21.33;46.00;101606.63;10585260;27;20043;-80
2024/02/02 12:55:48;;;;;;;6.38;3.97;;;;;;;20.66;47.30;101603.97;10612650;27;20244;-77
2024/02/02 13:01:11;;;;;;;7.93;4.07;;;;;;;19.64;49.77;101614.81;10573482;27;20127;-80
2024/02/02 13:06:35;;;;;;;3.85;2.80;;;;;;;19.39;50.80;101611.38;10566249;27;20044;-78
2024/02/02 13:12:00;;;;;;;3.47;2.30;;;;;;;19.63;50.18;101608.56;10583710;27;20058;-77
2024/02/02 13:17:22;;;;;;;9.82;3.63;;;;;;;19.56;50.24;101616.69;10610384;27;20043;-78
2024/02/02 13:22:50;;;;;;;9.02;4.75;;;;;;;19.20;51.39;101602.59;10581597;27;20521;-80
2024/02/02 13:28:16;;;;;;;16.75;9.50;;;;;;;18.81;53.01;101625.09;10565474;27;20050;-76
2024/02/02 13:33:41;;;;;;;5.18;4.22;;;;;;;18.78;53.28;101617.09;10569219;27;20047;-81
2024/02/02 13:39:05;;;;;;;5.40;4.65;;;;;;;18.86;53.33;101630.44;10578557;27;20052;-85
2024/02/02 13:44:30;;;;;;;5.05;4.55;;;;;;;18.47;54.65;101629.66;10584256;27;20795;-83
2024/02/02 13:50:01;;;;;;;4.55;4.10;;;;;;;18.13;54.80;101620.81;10584317;27;20066;-80
2024/02/02 13:55:29;;;;;;;4.65;3.83;;;;;;;17.95;55.34;101626.19;10594534;27;20046;-81
2024/02/02 14:00:52;;;;;;;8.65;4.72;;;;;;;17.80;56.73;101626.19;10578298;27;20047;-78
2024/02/02 14:06:15;;;;;;;7.45;4.93;;;;;;;17.42;57.47;101616.34;10562310;27;20044;-78
2024/02/02 14:11:39;;;;;;;15.40;8.32;;;;;;;16.97;57.84;101613.56;10598454;27;20050;-80
2024/02/02 14:17:04;;;;;;;4.65;3.45;;;;;;;16.40;60.23;101614.19;10573677;27;20048;-79
2024/02/02 14:22:27;;;;;;;3.50;2.92;;;;;;;16.10;62.85;101626.44;10565998;28;20045;-78
2024/02/02 14:27:51;;;;;;;4.07;3.03;;;;;;;15.89;63.63;101621.84;10568750;28;20550;-80
2024/02/02 14:33:18;;;;;;;5.53;3.40;;;;;;;15.70;64.17;101627.00;10595095;28;20067;-82
2024/02/02 14:38:45;;;;;;;5.25;3.30;;;;;;;15.52;65.79;101630.38;10569034;28;20487;-82
2024/02/02 14:44:10;;;;;;;3.75;3.38;;;;;;;15.40;66.64;101631.16;10568155;28;20048;-80
2024/02/02 14:49:34;;;;;;;3.90;3.50;;;;;;;15.30;68.13;101634.56;10561138;28;20046;-82
2024/02/02 14:54:56;;;;;;;7.68;4.45;;;;;;;15.11;69.74;101625.50;10588085;28;20073;-82
2024/02/02 15:00:30;;;;;;;6.70;5.55;;;;;;;14.94;72.02;101621.78;10580367;28;20552;-79
2024/02/02 15:05:52;;;;;;;8.18;7.00;;;;;;;14.62;75.02;101626.72;10594394;28;20533;-80
2024/02/02 15:11:15;;;;;;;5.00;4.07;;;;;;;14.31;78.11;101624.47;10570619;28;20131;-78
2024/02/02 15:16:39;;;;;;;7.22;4.47;;;;;;;14.15;78.55;101627.78;10581822;27;20373;-78
2024/02/02 15:22:02;;;;;;;5.10;4.38;;;;;;;14.04;80.84;101642.66;10583993;27;20051;-81
2024/02/02 15:27:25;;;;;;;15.05;10.57;;;;;;;13.88;83.44;101628.25;10576984;27;20101;-80
2024/02/02 15:32:49;;;;;;;9.07;8.02;;;;;;;13.66;85.18;101629.63;10567829;27;20055;-81
2024/02/02 15:38:12;;;;;;;9.98;6.90;;;;;;;13.39;88.67;101637.16;10585973;27;20054;-80
2024/02/02 15:43:36;;;;;;;9.40;8.45;;;;;;;13.22;91.35;101631.50;10596001;27;20045;-77
2024/02/02 15:49:01;;;;;;;10.15;8.55;;;;;;;13.04;93.92;101633.78;10599802;27;20055;-79
2024/02/02 15:54:24;;;;;;;11.88;8.02;;;;;;;13.00;95.10;101639.88;10593753;27;20051;-79
2024/02/02 15:59:46;;;;;;;10.30;8.20;;;;;;;12.89;96.56;101638.78;10579648;27;20062;-77
2024/02/02 16:05:16;;;;;;;12.70;8.15;;;;;;;12.81;96.77;101640.38;10579175;27;20065;-80
2024/02/02 16:10:38;;;;;;;9.85;7.00;;;;;;;12.66;99.32;101641.84;10575345;27;20043;-77
2024/02/02 16:16:01;;;;;;;8.63;7.72;;;;;;;12.57;99.63;101652.25;10584108;27;20082;-83
2024/02/02 16:21:25;;;;;;;8.60;7.07;;;;;;;12.73;100.00;101656.13;10595293;27;20043;-80
2024/02/02 16:26:48;;;;;;;5.80;5.22;;;;;;;12.89;98.55;101657.31;10596945;27;20138;-75
2024/02/02 16:32:11;;;;;;;9.77;7.88;;;;;;;13.09;97.81;101655.97;10588822;27;20047;-76
2024/02/02 16:37:38;;;;;;;12.50;7.72;;;;;;;13.24;97.14;101669.56;10586136;27;20038;-76
2024/02/02 16:43:00;;;;;;;14.68;9.88;;;;;;;13.00;99.65;101667.28;10572252;27;20054;-80
2024/02/02 16:48:23;;;;;;;44.67;27.13;;;;;;;12.95;100.00;101676.00;10564099;27;20101;-78
2024/02/02 16:53:48;;;;;;;20.92;15.55;;;;;;;12.72;100.00;101672.88;10572657;27;20047;-77
2024/02/02 16:59:11;;;;;;;11.73;10.52;;;;;;;12.44;100.00;101671.38;10608766;27;20062;-78
2024/02/02 17:04:33;;;;;;;19.95;15.18;;;;;;;12.33;100.00;101688.78;10575204;27;20040;-77
2024/02/02 17:09:58;;;;;;;18.00;13.18;;;;;;;12.12;100.00;101688.25;10578116;27;20727;-77
2024/02/02 17:15:21;;;;;;;32.05;20.48;;;;;;;11.93;100.00;101694.88;10579459;27;20050;-78
2024/02/02 17:20:44;;;;;;;14.80;11.10;;;;;;;11.86;100.00;101700.84;10564968;27;20051;-77
2024/02/02 17:26:15;;;;;;;17.63;13.25;;;;;;;11.74;100.00;101705.84;10576993;27;20142;-80
2024/02/02 17:31:39;;;;;;;49.58;25.15;;;;;;;11.57;100.00;101702.69;10587372;27;20043;-82
2024/02/02 17:37:01;;;;;;;56.35;35.17;;;;;;;11.46;100.00;101702.41;10580051;27;20054;-77
2024/02/02 17:42:25;;;;;;;35.70;23.02;;;;;;;11.41;100.00;101701.41;10575688;27;20137;-78
2024/02/02 17:47:48;;;;;;;33.67;18.30;;;;;;;11.55;100.00;101715.00;10575238;27;20048;-78
2024/02/02 17:53:11;;;;;;;62.47;34.40;;;;;;;11.45;100.00;101707.66;10569327;27;20141;-77
2024/02/02 17:58:36;;;;;;;151.82;78.13;;;;;;;11.62;100.00;101719.56;10583458;27;20051;-77
2024/02/02 18:03:58;;;;;;;52.83;29.52;;;;;;;11.56;99.85;101717.66;10592515;27;20047;-76
2024/02/02 18:09:21;;;;;;;26.67;19.17;;;;;;;11.70;100.00;101723.31;10581918;27;20131;-77
2024/02/02 18:14:45;;;;;;;66.10;30.05;;;;;;;11.93;98.84;101730.16;10567921;27;20055;-78
2024/02/02 18:20:09;;;;;;;21.75;14.05;;;;;;;11.95;98.69;101731.06;10587040;27;20510;-79
2024/02/02 18:25:32;;;;;;;20.08;14.50;;;;;;;11.76;100.00;101734.09;10582534;28;20046;-81
2024/02/02 18:30:56;;;;;;;12.98;11.55;;;;;;;11.53;100.00;101735.22;10589575;28;20042;-79
2024/02/02 18:36:19;;;;;;;18.48;12.50;;;;;;;11.41;100.00;101735.78;10581121;27;20051;-75
2024/02/02 18:41:41;;;;;;;11.48;8.55;;;;;;;11.26;100.00;101740.63;10592943;28;20049;-76
2024/02/02 18:47:07;;;;;;;24.25;17.90;;;;;;;11.31;100.00;101743.38;10606397;27;20035;-77
2024/02/02 18:52:29;;;;;;;21.83;12.30;;;;;;;11.19;100.00;101742.19;10588725;27;20738;-77
2024/02/02 18:57:53;;;;;;;30.45;19.85;;;;;;;11.07;100.00;101739.19;10590781;27;20047;-78
2024/02/02 19:03:17;;;;;;;14.95;9.68;;;;;;;11.01;100.00;101728.47;10603472;27;20054;-78
2024/02/02 19:08:40;;;;;;;13.15;11.80;;;;;;;11.20;100.00;101732.53;10603533;27;20134;-78
2024/02/02 19:14:02;;;;;;;19.83;14.57;;;;;;;11.18;100.00;101731.56;10606589;27;20592;-78
2024/02/02 19:19:27;;;;;;;9.98;8.68;;;;;;;11.18;100.00;101740.41;10635673;27;20502;-79
2024/02/02 19:24:51;;;;;;;16.13;11.70;;;;;;;11.13;100.00;101739.38;10634024;27;20547;-78
2024/02/02 19:30:14;;;;;;;16.33;12.07;;;;;;;11.42;100.00;101736.69;10607172;27;20050;-77
2024/02/02 19:35:42;;;;;;;23.30;11.85;;;;;;;11.53;100.00;101740.50;10592425;27;20093;-76
2024/02/02 19:41:04;;;;;;;18.23;11.75;;;;;;;11.60;100.00;101737.16;10593568;27;20043;-77
2024/02/02 19:46:28;;;;;;;31.08;19.05;;;;;;;11.69;100.00;101742.69;10605894;27;20039;-75
2024/02/02 19:51:52;;;;;;;31.42;18.92;;;;;;;11.70;100.00;101733.00;10589101;27;20051;-77
2024/02/02 19:57:15;;;;;;;17.40;12.77;;;;;;;11.79;100.00;101738.59;10601262;27;20124;-80
2024/02/02 20:02:38;;;;;;;11.48;8.38;;;;;;;11.68;100.00;101737.38;10594118;27;20047;-79
2024/02/02 20:08:02;;;;;;;18.90;12.55;;;;;;;11.58;100.00;101733.59;10582781;27;20043;-81
2024/02/02 20:13:25;;;;;;;16.73;12.70;;;;;;;11.71;100.00;101742.72;10608495;27;20064;-80
2024/02/02 20:18:47;;;;;;;17.42;12.05;;;;;;;11.77;100.00;101738.53;10581108;27;20051;-78
2024/02/02 20:24:11;;;;;;;22.45;18.88;;;;;;;12.12;100.00;101734.16;10534602;28;20048;-79
2024/02/02 20:29:34;;;;;;;14.93;12.05;;;;;;;12.53;100.00;101737.81;10576823;27;20116;-79
2024/02/02 20:34:57;;;;;;;13.68;11.77;;;;;;;12.77;99.66;101726.84;10578372;27;20138;-79
2024/02/02 20:40:21;;;;;;;15.27;11.30;;;;;;;12.74;100.00;101738.28;10565939;27;20483;-78
2024/02/02 20:45:44;;;;;;;10.45;7.97;;;;;;;12.70;100.00;101744.38;10566198;27;20035;-78
2024/02/02 20:51:06;;;;;;;7.15;5.93;;;;;;;12.82;100.00;101725.19;10539402;27;20450;-78
2024/02/02 20:56:30;;;;;;;9.55;7.40;;;;;;;12.87;100.00;101735.88;10555875;27;20053;-78
2024/02/02 21:01:53;;;;;;;57.65;37.05;;;;;;;12.84;100.00;101728.78;10576865;27;20044;-78
2024/02/02 21:07:16;;;;;;;15.65;8.23;;;;;;;12.73;100.00;101725.88;10555261;27;20050;-78
2024/02/02 21:12:40;;;;;;;8.18;4.65;;;;;;;12.75;100.00;101741.81;10577659;27;20057;-78
2024/02/02 21:18:06;;;;;;;10.27;6.63;;;;;;;12.90;100.00;101733.31;10579852;27;20134;-78
2024/02/02 21:23:29;;;;;;;8.60;5.97;;;;;;;12.92;100.00;101736.91;10572648;27;20055;-78
2024/02/02 21:28:53;;;;;;;9.15;6.32;;;;;;;12.97;100.00;101738.78;10562832;27;20058;-78
2024/02/02 21:34:16;;;;;;;23.70;11.95;;;;;;;13.14;100.00;101731.22;10564182;27;20054;-78
2024/02/02 21:39:40;;;;;;;8.23;5.65;;;;;;;13.21;100.00;101721.63;10572960;27;20645;-78
2024/02/02 21:45:04;;;;;;;14.38;9.32;;;;;;;13.29;100.00;101726.22;10553655;27;20047;-78
2024/02/02 21:50:27;;;;;;;16.75;10.23;;;;;;;13.36;100.00;101735.19;10552249;28;20055;-78
2024/02/02 21:55:49;;;;;;;10.88;7.65;;;;;;;13.47;100.00;101731.88;10524234;27;20048;-78
2024/02/02 22:01:13;;;;;;;11.52;6.47;;;;;;;13.44;100.00;101728.28;10575004;28;20142;-78
2024/02/02 22:06:36;;;;;;;8.52;4.35;;;;;;;13.31;100.00;101724.50;10576373;27;20055;-78
2024/02/02 22:11:59;;;;;;;7.90;5.95;;;;;;;13.36;100.00;101725.50;10601327;27;20409;-78
2024/02/02 22:17:23;;;;;;;7.80;4.40;;;;;;;13.08;100.00;101720.44;10564922;27;20073;-78
2024/02/02 22:22:46;;;;;;;9.27;5.43;;;;;;;12.93;100.00;101722.81;10560119;28;20047;-78
2024/02/02 22:28:09;;;;;;;12.57;5.07;;;;;;;13.06;100.00;101725.72;10572949;28;20055;-78
2024/02/02 22:33:33;;;;;;;12.73;6.75;;;;;;;13.00;100.00;101732.63;10586808;28;20062;-78
2024/02/02 22:38:56;;;;;;;13.82;8.73;;;;;;;12.91;100.00;101721.88;10560006;28;20492;-78
2024/02/02 22:44:18;;;;;;;11.30;5.25;;;;;;;12.75;100.00;101718.88;10584304;28;20081;-79
2024/02/02 22:49:42;;;;;;;8.95;5.88;;;;;;;12.73;100.00;101720.56;10558179;28;20075;-78
2024/02/02 22:55:05;;;;;;;9.50;5.75;;;;;;;12.68;100.00;101721.34;10561708;28;20058;-78
2024/02/02 23:00:28;;;;;;;8.85;4.80;;;;;;;12.63;100.00;101709.75;10545568;28;20134;-78
2024/02/02 23:05:52;;;;;;;9.52;4.90;;;;;;;12.65;100.00;101708.03;10582453;28;20134;-78
2024/02/02 23:11:15;;;;;;;8.68;4.97;;;;;;;12.55;100.00;101709.56;10587606;28;20039;-78
2024/02/02 23:16:38;;;;;;;7.47;5.05;;;;;;;12.35;100.00;101709.13;10581978;28;20445;-77
2024/02/02 23:22:02;;;;;;;7.25;4.53;;;;;;;12.22;100.00;101714.97;10587382;28;20043;-78
2024/02/02 23:27:24;;;;;;;12.38;5.75;;;;;;;12.26;100.00;101714.22;10574543;28;20048;-78
2024/02/02 23:32:47;;;;;;;11.50;5.88;;;;;;;12.37;100.00;101710.06;10548878;28;20518;-78
2024/02/02 23:38:12;;;;;;;8.40;4.35;;;;;;;12.49;100.00;101709.44;10591377;27;20062;-77
2024/02/02 23:43:35;;;;;;;6.25;4.18;;;;;;;12.43;100.00;101719.00;10592823;27;20051;-78
2024/02/02 23:48:58;;;;;;;6.53;3.80;;;;;;;12.19;100.00;101716.66;10578750;27;20043;-78
2024/02/02 23:54:22;;;;;;;4.80;3.55;;;;;;;12.17;100.00;101726.31;10584815;27;20487;-78
2024/02/02 23:59:45;;;;;;;6.90;4.10;;;;;;;11.96;100.00;101729.31;10586144;27;20122;-77
